Goiandira, Brazil
Current Conditions -  °F | °C
As of 5:00 AM on Friday 28 Nov 2014 (Local Time) from SBUL Reporting Station
Light Rain Light Rain  
Wind Chill: 68°   Ceiling: 200
Heat Index: 68°   Visibility: 5mi
Dew Point: 66°   Wind: 10mph
Humidity: 94%   Direction: 340°NNW
Pressure: 29.97"   Gusts: NA
Location:  18.13°S, 48.08°W
Report Text: SBUL 280700Z 34009KT 8000 -RA BKN002 BKN100 20/19 20/19 Q1015
Loading
Personal Weather Stations






























Interactive Weather Map New forecast layout! Learn more

10-Day Weather Forecast

Advertisements
Track Severe Weather on mobile